An Xiu Shan — BRQV — position and weather

sailwx.info

Track history (hours):
 
Tides and Currents Weather Stations Pressure Air Temp Water Temp Dewpoint Dewpoint Depression Visibility Wind Speed Wind Dir Waves Ship Positions

An Xiu Shan

Last reported at 2015-May-06 14:30 UTC. Time now 2015-May-07 08:38 UTC.
Position N 38°20' E 117°52'.

Length 199 m; draft 7.1 m.

Type: Cargo ship. MMSI: 413195000.

Date/timePositionNaut miles runAvg speedWind from/ knotsBaromVisibWave heightAir tempDewpointWater temp
2015-May-06 14:30N 38°20' E 117°52'0 0.0
2015-May-06 13:24N 38°20' E 117°52'0 0.0
2015-May-06 12:30N 38°20' E 117°52'0 0.0
2015-May-06 11:24N 38°20' E 117°52'0 0.0
2015-May-06 10:31N 38°20' E 117°52'0 0.0
2015-May-06 09:32N 38°20' E 117°52'2 0.1
2015-May-05 20:28N 38°20' E 117°55'92 4.3
2015-May-04 23:05N 38°31' E 119°51'2010.5
2015-May-04 21:11N 38°33' E 120°16'5010.4
2015-May-04 16:23N 38°25' E 121°20'1012.2
2015-May-04 15:33N 38°19' E 121°30'1211.9
2015-May-04 14:33N 38°13' E 121°43'1211.7
2015-May-04 13:33N 38°06' E 121°55'1211.8
2015-May-04 12:33N 37°59' E 122°07'1211.8
2015-May-04 11:33N 37°52' E 122°20'1212.0
2015-May-04 10:33N 37°46' E 122°32'1211.9
2015-May-04 09:33N 37°38' E 122°43'1212.4
2015-May-04 08:34N 37°27' E 122°51'2210.9
2015-May-04 06:32N 37°05' E 122°53'1310.1
2015-May-04 05:13N 36°52' E 122°53'34710.0
2015-May-02 18:34N 31°05' E 122°31'1414.2
2015-May-02 17:33N 31°08' E 122°15'1414.4
2015-May-02 16:34N 31°15' E 121°60'1212.4
2015-May-02 15:34N 31°18' E 121°46'1111.3
2015-May-02 14:34N 31°23' E 121°34'1010.4
2015-May-02 13:34N 31°30' E 121°25'10 9.6
2015-May-02 12:34N 31°37' E 121°17'0 0.1
2015-May-02 11:30N 31°37' E 121°17'0 0.0
2015-May-02 10:30N 31°37' E 121°17'0 0.0
2015-May-02 09:33N 31°37' E 121°17'0 0.0
2015-May-02 08:30N 31°37' E 121°17'0 0.1
2015-May-02 07:33N 31°37' E 121°17'0 0.2
2015-May-02 06:33N 31°38' E 121°17'0 0.1
2015-May-02 05:33N 31°38' E 121°17'0 0.0
2015-May-02 04:33N 31°38' E 121°17'0 0.0
2015-May-02 03:33N 31°38' E 121°17'0 0.0
2015-May-02 02:33N 31°38' E 121°17'0 0.1
2015-May-02 01:33N 31°38' E 121°17'0 0.1
2015-May-02 00:33N 31°37' E 121°17'0 0.0
2015-May-01 23:33N 31°37' E 121°17'0 0.0
2015-May-01 22:33N 31°37' E 121°17'0 0.0
2015-May-01 21:34N 31°37' E 121°17'0 0.0
2015-May-01 20:33N 31°37' E 121°17'0 0.1
2015-May-01 19:33N 31°37' E 121°17'0 0.2
2015-May-01 18:33N 31°38' E 121°17'0 0.0
2015-May-01 17:33N 31°38' E 121°17'0 0.0
2015-May-01 16:33N 31°38' E 121°17'0 0.0
2015-May-01 15:33N 31°38' E 121°17'0 0.0
2015-May-01 14:34N 31°38' E 121°17'0 0.0
2015-May-01 13:33N 31°38' E 121°17'0 0.2
2015-May-01 12:33N 31°37' E 121°17'0 0.0
2015-May-01 11:33N 31°37' E 121°17'0 0.0
2015-May-01 10:33N 31°37' E 121°17'0 0.1
2015-May-01 09:33N 31°37' E 121°17'0 0.0
2015-May-01 08:34N 31°37' E 121°17'0 0.1
2015-May-01 07:33N 31°37' E 121°17'0 0.2
2015-May-01 06:33N 31°37' E 121°17'0 0.1
2015-May-01 05:33N 31°38' E 121°17'0 0.0
2015-May-01 04:33N 31°38' E 121°17'0 0.0
2015-May-01 03:33N 31°38' E 121°17'0 0.1
2015-May-01 02:25N 31°38' E 121°17'1 0.9
2015-May-01 01:19N 31°38' E 121°16'0 0.2
2015-May-01 00:28N 31°38' E 121°16'0 0.0
2015-Apr-30 23:31N 31°38' E 121°16'0 0.1
2015-Apr-30 22:31N 31°38' E 121°16'0 0.1
2015-Apr-30 21:31N 31°38' E 121°16'0 0.0
2015-Apr-30 20:31N 31°38' E 121°16'0 0.0
2015-Apr-30 19:31N 31°38' E 121°16'0 0.2
2015-Apr-30 18:31N 31°38' E 121°16'0 0.1
2015-Apr-30 17:31N 31°38' E 121°16'0 0.1
2015-Apr-30 16:31N 31°38' E 121°16'0 0.0
2015-Apr-30 15:31N 31°38' E 121°16'0 0.0
2015-Apr-30 14:31N 31°38' E 121°16'0 0.0
2015-Apr-30 13:31N 31°38' E 121°16'0 0.2
2015-Apr-30 12:31N 31°38' E 121°16'0 0.0
2015-Apr-30 11:31N 31°38' E 121°16'0 0.1
2015-Apr-30 10:28N 31°38' E 121°16'0 0.0
2015-Apr-30 09:31N 31°38' E 121°16'0 0.0
2015-Apr-30 08:31N 31°38' E 121°16'0 0.1
2015-Apr-30 07:31N 31°38' E 121°16'0 0.0
2015-Apr-30 06:31N 31°38' E 121°16'0 0.1
2015-Apr-30 05:31N 31°38' E 121°16'0 0.2
2015-Apr-30 04:31N 31°38' E 121°16'0 0.1
2015-Apr-30 03:31N 31°38' E 121°16'0 0.0
2015-Apr-30 02:31N 31°38' E 121°16'0 0.0
2015-Apr-30 01:31N 31°38' E 121°16'0 0.2
2015-Apr-30 00:28N 31°38' E 121°16'0 0.1
2015-Apr-29 23:31N 31°38' E 121°16'0 0.0
2015-Apr-29 22:28N 31°38' E 121°16'0 0.0
2015-Apr-29 21:31N 31°38' E 121°16'0 0.0
2015-Apr-29 20:31N 31°38' E 121°16'0 0.0
2015-Apr-29 19:34N 31°38' E 121°16'1 0.8
2015-Apr-29 18:34N 31°37' E 121°17'3 3.3
2015-Apr-29 17:33N 31°34' E 121°19'7 7.1
2015-Apr-29 16:34N 31°30' E 121°26'8 8.1
2015-Apr-29 15:34N 31°24' E 121°33'10 9.6
2015-Apr-29 14:34N 31°20' E 121°42'8 8.0
2015-Apr-29 13:34N 31°16' E 121°51'1010.2
2015-Apr-29 12:34N 31°14' E 122°03'9 8.9
2015-Apr-29 11:33N 31°10' E 122°12'9 9.2
2015-Apr-29 10:34N 31°06' E 122°22'44 3.2
2015-Apr-28 20:33N 30°40' E 123°03'1110.7
2015-Apr-28 19:32N 30°29' E 123°04'28 9.5
2015-Apr-28 16:33N 30°01' E 122°58'10 9.5
2015-Apr-28 15:32N 29°52' E 122°54'1010.4
2015-Apr-28 14:33N 29°43' E 122°51'1010.4
2015-Apr-28 13:34N 29°33' E 122°47'1310.5
2015-Apr-28 12:22N 29°21' E 122°43'911.0
2015-Apr-28 11:33N 29°13' E 122°38'1111.1
2015-Apr-28 10:33N 29°02' E 122°34'  
Track history (hours):
 
Tides and Currents Weather Stations Pressure Air Temp Water Temp Dewpoint Dewpoint Depression Visibility Wind Speed Wind Dir Waves Ship Positions

An Xiu Shan

Last reported at 2015-May-06 14:30 UTC. Time now 2015-May-07 08:38 UTC.
Position N 38°20' E 117°52'.

Length 199 m; draft 7.1 m.

Type: Cargo ship. MMSI: 413195000.

Date/timePositionNaut miles runAvg speedWind from/ knotsBaromVisibWave heightAir tempDewpointWater temp
2015-May-06 14:30N 38°20' E 117°52'0 0.0
2015-May-06 13:24N 38°20' E 117°52'0 0.0
2015-May-06 12:30N 38°20' E 117°52'0 0.0
2015-May-06 11:24N 38°20' E 117°52'0 0.0
2015-May-06 10:31N 38°20' E 117°52'0 0.0
2015-May-06 09:32N 38°20' E 117°52'2 0.1
2015-May-05 20:28N 38°20' E 117°55'92 4.3
2015-May-04 23:05N 38°31' E 119°51'2010.5
2015-May-04 21:11N 38°33' E 120°16'5010.4
2015-May-04 16:23N 38°25' E 121°20'1012.2
2015-May-04 15:33N 38°19' E 121°30'1211.9
2015-May-04 14:33N 38°13' E 121°43'1211.7
2015-May-04 13:33N 38°06' E 121°55'1211.8
2015-May-04 12:33N 37°59' E 122°07'1211.8
2015-May-04 11:33N 37°52' E 122°20'1212.0
2015-May-04 10:33N 37°46' E 122°32'1211.9
2015-May-04 09:33N 37°38' E 122°43'1212.4
2015-May-04 08:34N 37°27' E 122°51'2210.9
2015-May-04 06:32N 37°05' E 122°53'1310.1
2015-May-04 05:13N 36°52' E 122°53'34710.0
2015-May-02 18:34N 31°05' E 122°31'1414.2
2015-May-02 17:33N 31°08' E 122°15'1414.4
2015-May-02 16:34N 31°15' E 121°60'1212.4
2015-May-02 15:34N 31°18' E 121°46'1111.3
2015-May-02 14:34N 31°23' E 121°34'1010.4
2015-May-02 13:34N 31°30' E 121°25'10 9.6
2015-May-02 12:34N 31°37' E 121°17'0 0.1
2015-May-02 11:30N 31°37' E 121°17'0 0.0
2015-May-02 10:30N 31°37' E 121°17'0 0.0
2015-May-02 09:33N 31°37' E 121°17'0 0.0
2015-May-02 08:30N 31°37' E 121°17'0 0.1
2015-May-02 07:33N 31°37' E 121°17'0 0.2
2015-May-02 06:33N 31°38' E 121°17'0 0.1
2015-May-02 05:33N 31°38' E 121°17'0 0.0
2015-May-02 04:33N 31°38' E 121°17'0 0.0
2015-May-02 03:33N 31°38' E 121°17'0 0.0
2015-May-02 02:33N 31°38' E 121°17'0 0.1
2015-May-02 01:33N 31°38' E 121°17'0 0.1
2015-May-02 00:33N 31°37' E 121°17'0 0.0
2015-May-01 23:33N 31°37' E 121°17'0 0.0
2015-May-01 22:33N 31°37' E 121°17'0 0.0
2015-May-01 21:34N 31°37' E 121°17'0 0.0
2015-May-01 20:33N 31°37' E 121°17'0 0.1
2015-May-01 19:33N 31°37' E 121°17'0 0.2
2015-May-01 18:33N 31°38' E 121°17'0 0.0
2015-May-01 17:33N 31°38' E 121°17'0 0.0
2015-May-01 16:33N 31°38' E 121°17'0 0.0
2015-May-01 15:33N 31°38' E 121°17'0 0.0
2015-May-01 14:34N 31°38' E 121°17'0 0.0
2015-May-01 13:33N 31°38' E 121°17'0 0.2
2015-May-01 12:33N 31°37' E 121°17'0 0.0
2015-May-01 11:33N 31°37' E 121°17'0 0.0
2015-May-01 10:33N 31°37' E 121°17'0 0.1
2015-May-01 09:33N 31°37' E 121°17'0 0.0
2015-May-01 08:34N 31°37' E 121°17'0 0.1
2015-May-01 07:33N 31°37' E 121°17'0 0.2
2015-May-01 06:33N 31°37' E 121°17'0 0.1
2015-May-01 05:33N 31°38' E 121°17'0 0.0
2015-May-01 04:33N 31°38' E 121°17'0 0.0
2015-May-01 03:33N 31°38' E 121°17'0 0.1
2015-May-01 02:25N 31°38' E 121°17'1 0.9
2015-May-01 01:19N 31°38' E 121°16'0 0.2
2015-May-01 00:28N 31°38' E 121°16'0 0.0
2015-Apr-30 23:31N 31°38' E 121°16'0 0.1
2015-Apr-30 22:31N 31°38' E 121°16'0 0.1
2015-Apr-30 21:31N 31°38' E 121°16'0 0.0
2015-Apr-30 20:31N 31°38' E 121°16'0 0.0
2015-Apr-30 19:31N 31°38' E 121°16'0 0.2
2015-Apr-30 18:31N 31°38' E 121°16'0 0.1
2015-Apr-30 17:31N 31°38' E 121°16'0 0.1
2015-Apr-30 16:31N 31°38' E 121°16'0 0.0
2015-Apr-30 15:31N 31°38' E 121°16'0 0.0
2015-Apr-30 14:31N 31°38' E 121°16'0 0.0
2015-Apr-30 13:31N 31°38' E 121°16'0 0.2
2015-Apr-30 12:31N 31°38' E 121°16'0 0.0
2015-Apr-30 11:31N 31°38' E 121°16'0 0.1
2015-Apr-30 10:28N 31°38' E 121°16'0 0.0
2015-Apr-30 09:31N 31°38' E 121°16'0 0.0
2015-Apr-30 08:31N 31°38' E 121°16'0 0.1
2015-Apr-30 07:31N 31°38' E 121°16'0 0.0
2015-Apr-30 06:31N 31°38' E 121°16'0 0.1
2015-Apr-30 05:31N 31°38' E 121°16'0 0.2
2015-Apr-30 04:31N 31°38' E 121°16'0 0.1
2015-Apr-30 03:31N 31°38' E 121°16'0 0.0
2015-Apr-30 02:31N 31°38' E 121°16'0 0.0
2015-Apr-30 01:31N 31°38' E 121°16'0 0.2
2015-Apr-30 00:28N 31°38' E 121°16'0 0.1
2015-Apr-29 23:31N 31°38' E 121°16'0 0.0
2015-Apr-29 22:28N 31°38' E 121°16'0 0.0
2015-Apr-29 21:31N 31°38' E 121°16'0 0.0
2015-Apr-29 20:31N 31°38' E 121°16'0 0.0
2015-Apr-29 19:34N 31°38' E 121°16'1 0.8
2015-Apr-29 18:34N 31°37' E 121°17'3 3.3
2015-Apr-29 17:33N 31°34' E 121°19'7 7.1
2015-Apr-29 16:34N 31°30' E 121°26'8 8.1
2015-Apr-29 15:34N 31°24' E 121°33'10 9.6
2015-Apr-29 14:34N 31°20' E 121°42'8 8.0
2015-Apr-29 13:34N 31°16' E 121°51'1010.2
2015-Apr-29 12:34N 31°14' E 122°03'9 8.9
2015-Apr-29 11:33N 31°10' E 122°12'9 9.2
2015-Apr-29 10:34N 31°06' E 122°22'44 3.2
2015-Apr-28 20:33N 30°40' E 123°03'1110.7
2015-Apr-28 19:32N 30°29' E 123°04'28 9.5
2015-Apr-28 16:33N 30°01' E 122°58'10 9.5
2015-Apr-28 15:32N 29°52' E 122°54'1010.4
2015-Apr-28 14:33N 29°43' E 122°51'1010.4
2015-Apr-28 13:34N 29°33' E 122°47'1310.5
2015-Apr-28 12:22N 29°21' E 122°43'911.0
2015-Apr-28 11:33N 29°13' E 122°38'1111.1
2015-Apr-28 10:33N 29°02' E 122°34'  

Dump ship's entire track history